createdAt,value
2019-05-15T00:01:12.331Z,1.60
2019-05-15T00:03:42.364Z,1.62
2019-05-15T00:06:12.386Z,1.70
2019-05-15T00:08:42.442Z,1.87
2019-05-15T00:11:12.797Z,2.00
2019-05-15T00:13:42.883Z,2.75
2019-05-15T00:16:12.891Z,1.77
2019-05-15T00:18:42.903Z,1.70
2019-05-15T00:21:12.902Z,1.82
2019-05-15T00:23:42.964Z,1.60
2019-05-15T00:26:13.055Z,2.12
2019-05-15T00:28:43.090Z,1.80
2019-05-15T00:31:13.276Z,1.67
2019-05-15T00:33:43.382Z,1.92
2019-05-15T00:36:13.466Z,1.65
2019-05-15T00:38:43.546Z,1.75
2019-05-15T00:41:13.666Z,1.80
2019-05-15T00:43:43.695Z,1.70
2019-05-15T00:46:13.799Z,1.52
2019-05-15T00:48:44.861Z,1.90
2019-05-15T00:51:14.929Z,1.90
2019-05-15T00:53:44.980Z,1.82
2019-05-15T00:56:15.085Z,1.98
2019-05-15T00:58:45.170Z,1.85
2019-05-15T01:01:15.259Z,2.10
2019-05-15T01:03:45.314Z,2.47
2019-05-15T01:06:15.340Z,1.87
2019-05-15T01:08:45.347Z,1.90
2019-05-15T01:11:15.365Z,1.92
2019-05-15T01:13:45.353Z,1.92
2019-05-15T01:16:15.463Z,2.10
2019-05-15T01:18:48.962Z,1.75
2019-05-15T01:21:18.748Z,1.90
2019-05-15T01:23:49.046Z,1.92
2019-05-15T01:26:19.108Z,1.98
2019-05-15T01:28:49.589Z,1.90
2019-05-15T01:31:19.848Z,2.12
2019-05-15T01:33:49.823Z,2.17
2019-05-15T01:36:19.835Z,2.27
2019-05-15T01:38:49.888Z,2.02
2019-05-15T01:41:19.871Z,1.98
2019-05-15T01:43:49.888Z,2.15
2019-05-15T01:46:19.915Z,2.25
2019-05-15T01:48:49.926Z,2.50
2019-05-15T01:51:19.919Z,2.22
2019-05-15T01:53:49.919Z,2.05
2019-05-15T01:56:19.951Z,2.30
2019-05-15T01:58:49.952Z,2.02
2019-05-15T02:01:21.006Z,1.85
2019-05-15T02:03:51.002Z,1.98
2019-05-15T02:06:20.997Z,2.12
2019-05-15T02:08:51.068Z,2.35
2019-05-15T02:11:21.120Z,2.25
2019-05-15T02:13:51.149Z,2.25
2019-05-15T02:16:21.135Z,2.20
2019-05-15T02:18:51.136Z,2.25
2019-05-15T02:21:21.458Z,2.25
2019-05-15T02:23:52.542Z,1.95
2019-05-15T02:26:22.560Z,1.67
2019-05-15T02:28:52.627Z,2.62
2019-05-15T02:31:22.617Z,1.90
2019-05-15T02:33:52.917Z,2.25
2019-05-15T02:36:22.938Z,2.10
2019-05-15T02:38:52.956Z,2.45
2019-05-15T02:41:22.961Z,2.30
2019-05-15T02:43:52.992Z,2.17
2019-05-15T02:46:23.040Z,1.90
2019-05-15T02:48:53.049Z,2.10
2019-05-15T02:51:23.056Z,2.05
2019-05-15T02:53:53.202Z,2.20
2019-05-15T02:56:23.263Z,1.90
2019-05-15T02:58:53.273Z,2.05
2019-05-15T03:01:23.274Z,2.00
2019-05-15T03:03:53.404Z,1.87
2019-05-15T03:06:24.559Z,1.90
2019-05-15T03:08:54.644Z,2.52
2019-05-15T03:11:24.699Z,2.20
2019-05-15T03:13:54.723Z,1.90
2019-05-15T03:16:24.769Z,2.40
2019-05-15T03:18:55.934Z,1.90
2019-05-15T03:21:29.495Z,2.42
2019-05-15T03:23:59.422Z,2.25
2019-05-15T03:26:30.080Z,1.70
2019-05-15T03:29:01.231Z,2.10
2019-05-15T03:31:49.063Z,2.12
2019-05-15T03:34:03.999Z,2.33
2019-05-15T03:36:34.328Z,2.17
2019-05-15T03:39:06.042Z,2.22
2019-05-15T03:41:39.058Z,2.00
2019-05-15T03:44:09.503Z,1.90
2019-05-15T03:46:40.084Z,2.40
2019-05-15T03:49:10.332Z,2.05
2019-05-15T03:51:45.412Z,2.30
2019-05-15T03:54:12.127Z,2.40
2019-05-15T03:56:42.197Z,3.00
2019-05-15T03:59:12.367Z,2.10
2019-05-15T04:01:43.739Z,2.27
2019-05-15T04:04:14.247Z,2.22
2019-05-15T04:06:44.300Z,2.45
2019-05-15T04:09:14.343Z,2.15
2019-05-15T04:11:44.703Z,2.33
2019-05-15T04:14:14.704Z,2.37
2019-05-15T04:16:44.730Z,2.40
2019-05-15T04:19:14.799Z,2.35
2019-05-15T04:21:45.347Z,2.10
2019-05-15T04:24:18.826Z,2.17
2019-05-15T04:26:48.868Z,1.92
2019-05-15T04:29:20.135Z,2.30
2019-05-15T04:32:00.595Z,2.22
2019-05-15T04:34:22.174Z,1.70
2019-05-15T04:36:52.353Z,2.00
2019-05-15T04:39:22.403Z,2.20
2019-05-15T04:41:52.466Z,1.90
2019-05-15T04:44:22.522Z,1.95
2019-05-15T04:46:52.757Z,2.20
2019-05-15T04:49:22.899Z,2.05
2019-05-15T04:51:53.044Z,1.95
2019-05-15T04:54:23.084Z,1.87
2019-05-15T04:56:53.222Z,1.95
2019-05-15T04:59:29.797Z,2.00
2019-05-15T05:02:16.303Z,2.25
2019-05-15T05:04:30.160Z,2.10
2019-05-15T05:07:00.558Z,2.02
2019-05-15T05:09:31.783Z,2.20
2019-05-15T05:12:02.058Z,2.20
2019-05-15T05:14:32.096Z,1.90
2019-05-15T05:17:02.285Z,2.10
2019-05-15T05:19:32.431Z,2.42
2019-05-15T05:22:02.631Z,1.90
2019-05-15T05:24:32.700Z,1.87
2019-05-15T05:27:02.877Z,1.70
2019-05-15T05:29:32.961Z,2.10
2019-05-15T05:32:03.082Z,1.80
2019-05-15T05:34:33.167Z,1.80
2019-05-15T05:37:03.431Z,1.70
2019-05-15T05:39:33.595Z,1.95
2019-05-15T05:42:03.622Z,2.00
2019-05-15T05:44:34.411Z,2.10
2019-05-15T05:47:04.423Z,1.92
2019-05-15T05:49:34.576Z,1.92
2019-05-15T05:52:04.559Z,2.12
2019-05-15T05:54:34.651Z,2.20
2019-05-15T05:57:04.712Z,2.15
2019-05-15T05:59:34.755Z,1.85
2019-05-15T06:02:04.781Z,2.08
2019-05-15T06:04:34.982Z,2.12
2019-05-15T06:07:09.930Z,1.65
2019-05-15T06:09:38.049Z,1.70
2019-05-15T06:12:08.274Z,1.80
2019-05-15T06:14:38.365Z,2.33
2019-05-15T06:17:08.534Z,2.12
2019-05-15T06:19:39.773Z,1.85
2019-05-15T06:22:11.616Z,2.22
2019-05-15T06:24:41.697Z,2.30
2019-05-15T06:27:11.742Z,2.12
2019-05-15T06:29:42.258Z,2.00
2019-05-15T06:32:12.413Z,1.75
2019-05-15T06:34:42.474Z,2.35
2019-05-15T06:37:12.822Z,2.27
2019-05-15T06:39:43.066Z,2.12
2019-05-15T06:42:13.153Z,2.00
2019-05-15T06:44:43.266Z,1.82
2019-05-15T06:47:13.324Z,1.75
2019-05-15T06:49:43.472Z,2.08
2019-05-15T06:52:18.092Z,1.67
2019-05-15T06:54:48.625Z,1.80
2019-05-15T06:57:19.939Z,1.62
2019-05-15T06:59:50.122Z,1.40
2019-05-15T07:02:20.216Z,2.15
2019-05-15T07:04:50.445Z,1.60
2019-05-15T07:07:20.590Z,1.52
2019-05-15T07:09:50.670Z,2.58
2019-05-15T07:12:20.712Z,2.08
2019-05-15T07:14:50.815Z,1.90
2019-05-15T07:17:21.008Z,1.77
2019-05-15T07:19:51.179Z,1.70
2019-05-15T07:22:21.338Z,1.67
2019-05-15T07:24:51.412Z,2.10
2019-05-15T07:27:21.602Z,2.15
2019-05-15T07:29:51.736Z,2.22
2019-05-15T07:32:21.795Z,1.60
2019-05-15T07:34:51.887Z,1.95
2019-05-15T07:37:21.939Z,1.87
2019-05-15T07:39:52.286Z,1.27
2019-05-15T07:42:22.379Z,1.57
2019-05-15T07:44:52.530Z,1.10
2019-05-15T07:47:22.664Z,1.32
2019-05-15T07:49:52.702Z,1.60
2019-05-15T07:52:22.896Z,1.52
2019-05-15T07:54:53.051Z,1.20
2019-05-15T07:57:23.227Z,1.57
2019-05-15T07:59:53.454Z,1.20
2019-05-15T08:02:23.531Z,1.40
2019-05-15T08:04:53.645Z,1.30
2019-05-15T08:07:23.784Z,1.20
2019-05-15T08:09:53.820Z,1.25
2019-05-15T08:12:23.896Z,1.30
2019-05-15T08:14:54.033Z,1.90
2019-05-15T08:17:24.125Z,1.95
2019-05-15T08:19:55.019Z,1.85
2019-05-15T08:22:25.136Z,1.40
2019-05-15T08:24:55.343Z,1.90
2019-05-15T08:27:25.432Z,1.60
2019-05-15T08:29:55.532Z,1.32
2019-05-15T08:32:27.896Z,1.57
2019-05-15T08:34:58.661Z,1.60
2019-05-15T08:37:29.330Z,1.65
2019-05-15T08:39:59.731Z,1.87
2019-05-15T08:42:32.273Z,1.52
2019-05-15T08:45:02.548Z,1.65
2019-05-15T08:47:32.768Z,1.60
2019-05-15T08:50:08.859Z,1.20
2019-05-15T08:52:40.019Z,2.08
2019-05-15T08:55:10.704Z,1.42
2019-05-15T08:57:40.784Z,1.42
2019-05-15T09:00:11.290Z,1.60
2019-05-15T09:02:41.628Z,1.85
2019-05-15T09:05:11.841Z,2.00
2019-05-15T09:07:41.992Z,1.75
2019-05-15T09:10:12.336Z,1.50
2019-05-15T09:12:42.453Z,1.67
2019-05-15T09:15:13.034Z,1.47
2019-05-15T09:17:43.243Z,1.40
2019-05-15T09:20:13.725Z,1.35
2019-05-15T09:22:43.931Z,1.45
2019-05-15T09:25:14.393Z,1.67
2019-05-15T09:27:44.615Z,1.80
2019-05-15T09:30:15.122Z,1.60
2019-05-15T09:32:45.309Z,1.37
2019-05-15T09:35:21.235Z,1.40
2019-05-15T09:37:51.359Z,2.72
2019-05-15T09:40:21.591Z,1.50
2019-05-15T09:42:55.233Z,1.40
2019-05-15T09:45:25.347Z,1.45
2019-05-15T09:47:55.520Z,1.45
2019-05-15T09:50:25.595Z,1.40
2019-05-15T09:53:28.532Z,1.50
2019-05-15T09:56:00.034Z,2.00
2019-05-15T09:58:30.443Z,2.02
2019-05-15T10:01:00.743Z,1.47
2019-05-15T10:03:31.962Z,1.25
2019-05-15T10:06:02.067Z,1.70
2019-05-15T10:08:32.185Z,1.70
2019-05-15T10:11:02.389Z,1.42
2019-05-15T10:13:32.543Z,1.57
2019-05-15T10:16:02.799Z,1.65
2019-05-15T10:21:02.862Z,1.80
2019-05-15T10:23:33.050Z,1.90
2019-05-15T10:26:03.237Z,1.40
2019-05-15T10:28:34.950Z,1.70
2019-05-15T10:31:05.098Z,1.60
2019-05-15T10:33:35.375Z,1.70
2019-05-15T10:36:08.151Z,1.22
2019-05-15T10:38:39.131Z,1.40
2019-05-15T10:41:14.796Z,1.52
2019-05-15T10:43:46.038Z,1.50
2019-05-15T10:46:13.739Z,2.95
2019-05-15T10:48:44.064Z,1.75
2019-05-15T10:51:14.324Z,1.42
2019-05-15T10:53:44.418Z,1.60
2019-05-15T10:56:14.604Z,1.60
2019-05-15T10:58:44.795Z,1.45
2019-05-15T11:01:14.835Z,1.30
2019-05-15T11:03:46.052Z,1.70
2019-05-15T11:06:18.309Z,1.52
2019-05-15T11:08:51.413Z,1.50
2019-05-15T11:11:20.381Z,1.90
2019-05-15T11:13:54.216Z,1.62
2019-05-15T11:16:24.358Z,1.52
2019-05-15T11:18:54.460Z,1.50
2019-05-15T11:21:24.560Z,1.52
2019-05-15T11:23:54.654Z,1.65
2019-05-15T11:26:24.681Z,1.30
2019-05-15T11:28:54.865Z,1.60
2019-05-15T11:31:25.107Z,1.55
2019-05-15T11:33:55.406Z,1.65
2019-05-15T11:36:25.576Z,1.60
2019-05-15T11:38:55.912Z,1.65
2019-05-15T11:41:29.213Z,1.37
2019-05-15T11:43:57.867Z,1.30
2019-05-15T11:46:29.112Z,1.40
2019-05-15T11:48:59.590Z,1.60
2019-05-15T11:51:29.726Z,1.30
2019-05-15T11:53:59.971Z,1.40
2019-05-15T11:56:30.115Z,1.40
2019-05-15T11:59:00.416Z,1.52
2019-05-15T12:01:30.571Z,1.40
2019-05-15T12:04:00.774Z,1.47
2019-05-15T12:06:31.934Z,1.32
2019-05-15T12:09:02.167Z,1.50
2019-05-15T12:11:37.259Z,1.20
2019-05-15T12:14:05.410Z,1.45
2019-05-15T12:16:36.476Z,1.92
2019-05-15T12:19:09.503Z,3.87
2019-05-15T12:21:39.767Z,1.40
2019-05-15T12:24:11.401Z,1.65
2019-05-15T12:26:41.503Z,1.25
2019-05-15T12:29:11.693Z,1.82
2019-05-15T12:31:41.815Z,1.72
2019-05-15T12:34:11.875Z,1.55
2019-05-15T12:36:52.099Z,1.50
2019-05-15T12:39:14.276Z,1.47
2019-05-15T13:02:02.987Z,1.45
2019-05-15T13:04:33.124Z,2.08
2019-05-15T13:07:12.886Z,1.55
2019-05-15T13:09:35.145Z,1.47
2019-05-15T13:12:05.314Z,1.30
2019-05-15T13:14:35.370Z,1.50
2019-05-15T13:17:07.018Z,1.67
2019-05-15T13:19:38.784Z,1.32
2019-05-15T13:22:17.841Z,1.75
2019-05-15T13:24:40.707Z,1.50
2019-05-15T13:27:10.935Z,1.20
2019-05-15T13:29:41.060Z,1.42
2019-05-15T13:32:11.162Z,1.57
2019-05-15T13:34:41.210Z,1.25
2019-05-15T13:37:11.436Z,1.30
2019-05-15T13:39:41.566Z,1.20
2019-05-15T13:42:11.836Z,1.40
2019-05-15T13:44:43.249Z,0.98
2019-05-15T13:47:13.357Z,1.07
2019-05-15T13:49:43.479Z,1.10
2019-05-15T13:52:13.653Z,0.93
2019-05-15T13:54:43.705Z,0.90
2019-05-15T13:57:13.799Z,1.00
2019-05-15T13:59:44.241Z,0.93
2019-05-15T14:02:14.401Z,1.00
2019-05-15T14:04:44.505Z,0.90
2019-05-15T14:07:14.648Z,1.50
2019-05-15T14:09:48.149Z,1.07
2019-05-15T14:12:18.506Z,1.20
2019-05-15T14:14:50.345Z,1.12
2019-05-15T14:17:22.231Z,1.20
2019-05-15T14:19:52.366Z,1.05
2019-05-15T14:22:22.568Z,1.02
2019-05-15T14:24:52.785Z,1.22
2019-05-15T14:27:22.841Z,1.05
2019-05-15T14:29:53.043Z,0.90
2019-05-15T14:32:35.458Z,1.10
2019-05-15T14:34:55.071Z,1.00
2019-05-15T14:37:25.405Z,1.05
2019-05-15T14:39:57.890Z,0.90
2019-05-15T14:42:29.253Z,0.80
2019-05-15T14:44:59.403Z,1.00
2019-05-15T14:47:29.724Z,1.27
2019-05-15T14:50:00.249Z,0.98
2019-05-15T14:52:30.330Z,1.32
2019-05-15T14:55:00.518Z,0.98
2019-05-15T14:57:30.997Z,0.80
2019-05-15T15:00:01.267Z,1.15
2019-05-15T15:02:31.564Z,2.00
2019-05-15T15:05:01.913Z,1.50
2019-05-15T15:07:32.145Z,1.27
2019-05-15T15:10:04.285Z,1.20
2019-05-15T15:12:34.475Z,0.90
2019-05-15T15:15:04.980Z,1.10
2019-05-15T15:17:35.211Z,1.75
2019-05-15T15:20:05.740Z,1.10
2019-05-15T15:22:35.902Z,1.15
2019-05-15T15:25:09.195Z,1.22
2019-05-15T15:27:38.700Z,1.50
2019-05-15T15:30:12.186Z,1.50
2019-05-15T15:32:42.307Z,1.32
2019-05-15T15:35:12.668Z,1.22
2019-05-15T15:37:42.841Z,1.07
2019-05-15T15:40:13.136Z,0.93
2019-05-15T15:42:43.344Z,1.00
2019-05-15T15:45:15.041Z,1.50
2019-05-15T15:47:45.381Z,1.10
2019-05-15T15:50:18.353Z,1.00
2019-05-15T15:52:49.042Z,1.30
2019-05-15T15:55:19.425Z,1.12
2019-05-15T15:57:49.713Z,1.12
2019-05-15T16:00:19.991Z,1.05
2019-05-15T16:02:50.229Z,1.15
2019-05-15T16:05:20.453Z,0.88
2019-05-15T16:07:50.482Z,1.20
2019-05-15T16:10:20.811Z,1.20
2019-05-15T16:12:51.026Z,1.20
2019-05-15T16:15:21.247Z,1.00
2019-05-15T16:17:51.419Z,1.17
2019-05-15T16:20:21.582Z,1.10
2019-05-15T16:22:51.690Z,1.10
2019-05-15T16:25:21.993Z,0.90
2019-05-15T16:27:52.189Z,0.90
2019-05-15T16:30:22.559Z,0.90
2019-05-15T16:32:52.960Z,1.00
2019-05-15T16:35:23.125Z,1.10
2019-05-15T16:37:54.433Z,1.00
2019-05-15T16:40:25.094Z,1.22
2019-05-15T16:42:57.635Z,1.30
2019-05-15T16:45:28.823Z,1.10
2019-05-15T16:48:00.680Z,0.90
2019-05-15T16:50:30.906Z,1.22
2019-05-15T16:53:01.105Z,1.20
2019-05-15T16:55:31.998Z,1.00
2019-05-15T16:58:02.517Z,1.00
2019-05-15T17:00:38.254Z,1.20
2019-05-15T17:03:28.922Z,1.00
2019-05-15T17:05:59.422Z,1.10
2019-05-15T17:08:32.314Z,0.90
2019-05-15T17:11:01.515Z,1.00
2019-05-15T17:13:31.746Z,0.90
2019-05-15T17:16:01.897Z,0.90
2019-05-15T17:18:32.015Z,1.00
2019-05-15T17:21:02.124Z,1.10
2019-05-15T17:23:32.380Z,1.02
2019-05-15T17:26:11.226Z,1.02
2019-05-15T17:28:41.529Z,1.20
2019-05-15T17:31:11.903Z,1.10
2019-05-15T17:33:42.270Z,1.17
2019-05-15T17:36:12.600Z,1.02
2019-05-15T17:38:42.705Z,1.12
2019-05-15T17:41:12.861Z,1.10
2019-05-15T17:43:43.002Z,1.17
2019-05-15T17:46:13.244Z,0.93
2019-05-15T17:48:43.422Z,1.02
2019-05-15T17:51:13.580Z,1.00
2019-05-15T17:53:43.727Z,1.05
2019-05-15T17:56:13.914Z,1.30
2019-05-15T17:58:44.066Z,0.90
2019-05-15T18:01:14.305Z,1.00
2019-05-15T18:03:48.454Z,1.12
2019-05-15T18:06:18.024Z,1.17
2019-05-15T18:08:48.662Z,1.22
2019-05-15T18:11:19.119Z,1.00
2019-05-15T18:13:49.434Z,1.35
2019-05-15T18:16:19.889Z,1.10
2019-05-15T18:18:50.150Z,1.17
2019-05-15T18:21:22.091Z,1.15
2019-05-15T18:23:52.430Z,1.20
2019-05-15T18:26:22.531Z,1.40
2019-05-15T18:28:52.750Z,1.25
2019-05-15T18:31:22.917Z,1.10
2019-05-15T18:33:54.114Z,1.22
2019-05-15T18:36:24.906Z,1.50
2019-05-15T18:38:55.083Z,1.30
2019-05-15T18:41:28.368Z,1.17
2019-05-15T18:43:58.230Z,1.10
2019-05-15T18:46:28.909Z,1.22
2019-05-15T18:49:00.289Z,1.40
2019-05-15T18:51:30.593Z,1.37
2019-05-15T18:54:00.849Z,1.00
2019-05-15T18:56:31.086Z,1.17
2019-05-15T18:59:01.375Z,1.35
2019-05-15T19:01:31.473Z,1.40
2019-05-15T19:04:01.725Z,1.32
2019-05-15T19:06:31.835Z,1.30
2019-05-15T19:09:01.924Z,1.12
2019-05-15T19:11:32.597Z,1.30
2019-05-15T19:14:02.764Z,1.20
2019-05-15T19:16:32.899Z,1.50
2019-05-15T19:19:03.084Z,1.22
2019-05-15T19:21:33.112Z,1.22
2019-05-15T19:24:03.287Z,1.20
2019-05-15T19:26:33.492Z,1.12
2019-05-15T19:29:04.837Z,1.40
2019-05-15T19:31:35.528Z,1.50
2019-05-15T19:34:05.648Z,1.32
2019-05-15T19:36:35.707Z,1.30
2019-05-15T19:39:08.099Z,1.17
2019-05-15T19:41:38.393Z,1.35
2019-05-15T19:44:09.724Z,1.37
2019-05-15T19:46:39.852Z,1.40
2019-05-15T19:49:10.012Z,1.70
2019-05-15T19:51:40.062Z,1.42
2019-05-15T19:54:10.285Z,1.32
2019-05-15T19:56:40.449Z,1.42
2019-05-15T19:59:10.574Z,1.50
2019-05-15T20:01:40.677Z,1.30
2019-05-15T20:04:10.880Z,1.30
2019-05-15T20:06:41.161Z,1.47
2019-05-15T20:09:11.412Z,1.70
2019-05-15T20:11:41.543Z,1.60
2019-05-15T20:14:11.707Z,1.57
2019-05-15T20:16:41.851Z,1.67
2019-05-15T20:19:12.072Z,1.80
2019-05-15T20:21:42.551Z,1.45
2019-05-15T20:24:12.583Z,1.50
2019-05-15T20:26:42.743Z,1.47
2019-05-15T20:29:14.090Z,1.60
2019-05-15T20:31:44.151Z,1.50
2019-05-15T20:34:14.203Z,1.52
2019-05-15T20:36:44.563Z,1.80
2019-05-15T20:39:14.736Z,1.60
2019-05-15T20:41:45.000Z,1.47
2019-05-15T20:44:15.073Z,1.67
2019-05-15T20:46:48.396Z,1.42
2019-05-15T20:49:18.534Z,1.45
2019-05-15T20:51:49.120Z,1.47
2019-05-15T20:54:19.266Z,1.47
2019-05-15T20:56:49.412Z,1.45
2019-05-15T20:59:19.655Z,1.60
2019-05-15T21:01:50.917Z,1.70
2019-05-15T21:04:24.158Z,1.40
2019-05-15T21:06:53.141Z,1.80
2019-05-15T21:09:23.142Z,1.60
2019-05-15T21:11:53.162Z,1.72
2019-05-15T21:14:24.271Z,1.50
2019-05-15T21:16:54.432Z,2.02
2019-05-15T21:19:24.547Z,1.62
2019-05-15T21:21:54.900Z,1.62
2019-05-15T21:24:24.997Z,1.67
2019-05-15T21:26:55.098Z,1.92
2019-05-15T21:29:25.159Z,1.95
2019-05-15T21:31:57.851Z,1.70
2019-05-15T21:34:37.514Z,1.90
2019-05-15T21:36:59.129Z,1.70
2019-05-15T21:39:30.272Z,1.47
2019-05-15T21:42:00.498Z,1.57
2019-05-15T21:44:30.546Z,1.47
2019-05-15T21:47:00.590Z,1.50
2019-05-15T21:49:30.618Z,1.85
2019-05-15T21:52:01.290Z,1.80
2019-05-15T21:54:31.304Z,1.50
2019-05-15T21:57:18.822Z,1.70
2019-05-15T21:59:33.066Z,1.80
2019-05-15T22:02:03.428Z,1.40
2019-05-15T22:04:33.519Z,1.82
2019-05-15T22:07:03.835Z,1.60
2019-05-15T22:09:33.986Z,1.90
2019-05-15T22:12:04.500Z,1.70
2019-05-15T22:14:34.643Z,1.80
2019-05-15T22:17:04.989Z,1.50
2019-05-15T22:19:35.019Z,1.45
2019-05-15T22:22:05.178Z,1.50
2019-05-15T22:24:37.759Z,1.80
2019-05-15T22:27:09.544Z,1.50
2019-05-15T22:29:39.190Z,1.72
2019-05-15T22:32:09.207Z,1.77
2019-05-15T22:34:39.230Z,1.82
2019-05-15T22:37:09.288Z,1.67
2019-05-15T22:39:39.586Z,1.60
2019-05-15T22:42:11.051Z,1.67
2019-05-15T22:44:41.322Z,2.08
2019-05-15T22:47:11.306Z,1.95
2019-05-15T22:49:41.443Z,1.60
2019-05-15T22:52:11.600Z,1.67
2019-05-15T22:54:41.906Z,1.90
2019-05-15T22:57:11.944Z,1.52
2019-05-15T22:59:42.178Z,1.60
2019-05-15T23:02:12.214Z,1.77
2019-05-15T23:04:42.331Z,1.52
2019-05-15T23:07:12.774Z,1.87
2019-05-15T23:09:43.335Z,1.75
2019-05-15T23:12:13.331Z,1.80
2019-05-15T23:14:43.408Z,2.00
2019-05-15T23:17:13.423Z,2.08
2019-05-15T23:19:43.553Z,2.60
2019-05-15T23:22:13.872Z,2.37
2019-05-15T23:24:43.954Z,2.67
2019-05-15T23:27:13.978Z,2.40
2019-05-15T23:29:49.123Z,2.40
2019-05-15T23:32:19.358Z,2.50
2019-05-15T23:34:49.391Z,2.22
2019-05-15T23:37:19.415Z,2.37
2019-05-15T23:39:49.502Z,2.40
2019-05-15T23:42:19.533Z,2.33
2019-05-15T23:44:49.642Z,2.35
2019-05-15T23:47:20.009Z,2.47
2019-05-15T23:49:50.148Z,2.42
2019-05-15T23:52:20.219Z,2.30
2019-05-15T23:54:50.426Z,2.00
2019-05-15T23:57:20.428Z,1.90
2019-05-15T23:59:50.464Z,2.30
